createdAt,value
2022-09-22T00:04:03.661Z,15.25
2022-09-22T00:06:34.007Z,16.90
2022-09-22T00:09:02.511Z,17.45
2022-09-22T00:11:36.413Z,13.60
2022-09-22T00:14:07.784Z,16.25
2022-09-22T00:19:22.320Z,13.85
2022-09-22T00:21:50.310Z,18.92
2022-09-22T00:24:18.674Z,14.02
2022-09-22T00:26:45.820Z,12.95
2022-09-22T00:29:13.305Z,12.70
2022-09-22T00:31:42.232Z,11.90
2022-09-22T00:34:15.390Z,9.15
2022-09-22T00:36:43.191Z,11.30
2022-09-22T00:39:10.606Z,13.57
2022-09-22T00:41:42.085Z,9.82
2022-09-22T00:47:01.565Z,8.35
2022-09-22T00:49:55.490Z,10.80
2022-09-22T00:52:32.593Z,9.25
2022-09-22T00:55:05.723Z,10.18
2022-09-22T00:57:37.454Z,9.40
2022-09-22T01:02:33.725Z,7.35
2022-09-22T01:05:00.951Z,7.57
2022-09-22T01:07:31.139Z,8.55
2022-09-22T01:10:00.059Z,8.25
2022-09-22T01:12:29.863Z,6.60
2022-09-22T01:15:12.128Z,8.63
2022-09-22T01:23:48.834Z,6.47
2022-09-22T01:32:06.198Z,7.40
2022-09-22T01:37:25.542Z,7.57
2022-09-22T01:39:58.891Z,7.70
2022-09-22T01:42:39.850Z,8.02
2022-09-22T01:45:11.886Z,8.85
2022-09-22T01:50:24.769Z,11.07
2022-09-22T01:52:53.997Z,7.22
2022-09-22T01:55:28.101Z,9.05
2022-09-22T01:58:02.053Z,10.93
2022-09-22T02:00:29.579Z,8.85
2022-09-22T02:05:52.664Z,7.40
2022-09-22T02:08:29.118Z,9.35
2022-09-22T02:11:01.801Z,13.02
2022-09-22T02:13:29.128Z,9.02
2022-09-22T02:16:03.904Z,11.88
2022-09-22T02:21:16.631Z,15.13
2022-09-22T02:23:45.227Z,12.23
2022-09-22T02:26:16.053Z,13.40
2022-09-22T02:28:45.133Z,16.98
2022-09-22T02:31:21.514Z,15.93
2022-09-22T02:33:50.029Z,11.98
2022-09-22T02:39:18.829Z,12.85
2022-09-22T02:42:10.602Z,16.30
2022-09-22T02:47:25.389Z,10.98
2022-09-22T02:49:54.117Z,17.25
2022-09-22T02:52:24.653Z,12.68
2022-09-22T02:54:55.514Z,15.13
2022-09-22T02:57:23.137Z,12.68
2022-09-22T02:59:50.362Z,16.05
2022-09-22T03:02:17.654Z,13.18
2022-09-22T03:04:44.860Z,13.93
2022-09-22T03:07:12.056Z,13.05
2022-09-22T03:09:39.173Z,15.10
2022-09-22T03:12:06.487Z,12.00
2022-09-22T03:14:33.573Z,10.73
2022-09-22T03:17:00.728Z,13.55
2022-09-22T03:19:27.957Z,13.10
2022-09-22T03:21:55.086Z,10.52
2022-09-22T03:24:22.257Z,13.73
2022-09-22T03:26:49.364Z,13.07
2022-09-22T03:29:16.729Z,11.70
2022-09-22T03:31:44.172Z,13.35
2022-09-22T03:34:11.214Z,13.02
2022-09-22T03:36:38.367Z,17.42
2022-09-22T03:39:05.650Z,14.40
2022-09-22T03:41:33.017Z,14.18
2022-09-22T03:44:00.324Z,17.60
2022-09-22T03:46:27.409Z,13.38
2022-09-22T03:48:54.662Z,14.07
2022-09-22T03:51:21.778Z,21.20
2022-09-22T03:53:48.846Z,20.80
2022-09-22T03:56:16.798Z,15.77
2022-09-22T03:58:44.213Z,20.88
2022-09-22T04:01:12.060Z,18.27
2022-09-22T04:03:39.472Z,14.85
2022-09-22T04:06:07.329Z,16.50
2022-09-22T04:08:34.718Z,19.70
2022-09-22T04:11:02.473Z,13.40
2022-09-22T04:13:29.807Z,19.33
2022-09-22T04:15:56.915Z,16.08
2022-09-22T04:18:24.491Z,23.80
2022-09-22T04:20:57.564Z,18.42
2022-09-22T04:23:26.282Z,19.27
2022-09-22T04:25:54.445Z,33.55
2022-09-22T04:28:21.781Z,31.20
2022-09-22T04:30:49.032Z,24.95
2022-09-22T04:33:16.662Z,26.83
2022-09-22T04:35:43.784Z,26.05
2022-09-22T04:38:11.077Z,26.58
2022-09-22T04:40:38.356Z,24.88
2022-09-22T04:43:05.584Z,26.42
2022-09-22T04:45:37.363Z,26.63
2022-09-22T04:48:06.781Z,20.60
2022-09-22T04:50:33.833Z,18.15
2022-09-22T04:53:00.984Z,23.00
2022-09-22T04:55:28.990Z,20.20
2022-09-22T04:57:57.471Z,21.13
2022-09-22T05:00:28.645Z,16.45
2022-09-22T05:02:56.526Z,14.93
2022-09-22T05:05:25.252Z,13.63
2022-09-22T05:07:54.676Z,15.00
2022-09-22T05:10:25.441Z,14.68
2022-09-22T05:12:54.199Z,15.65
2022-09-22T05:15:22.770Z,19.60
2022-09-22T05:17:53.104Z,23.42
2022-09-22T05:20:21.764Z,23.80
2022-09-22T05:22:48.894Z,20.95
2022-09-22T05:25:18.973Z,18.33
2022-09-22T05:27:49.371Z,18.48
2022-09-22T05:30:17.701Z,17.63
2022-09-22T05:32:47.242Z,17.67
2022-09-22T05:35:16.730Z,16.00
2022-09-22T05:37:44.902Z,15.10
2022-09-22T05:40:12.859Z,16.83
2022-09-22T05:42:46.692Z,14.88
2022-09-22T05:45:14.675Z,14.13
2022-09-22T05:47:42.535Z,17.90
2022-09-22T05:50:11.211Z,15.38
2022-09-22T05:52:38.742Z,13.50
2022-09-22T05:55:07.349Z,11.82
2022-09-22T05:57:34.551Z,11.00
2022-09-22T06:00:02.035Z,13.23
2022-09-22T06:02:30.494Z,12.98
2022-09-22T06:04:57.718Z,11.40
2022-09-22T06:07:25.151Z,10.65
2022-09-22T06:09:52.666Z,10.25
2022-09-22T06:12:20.267Z,7.30
2022-09-22T06:14:47.524Z,8.57
2022-09-22T06:17:15.004Z,7.22
2022-09-22T06:19:43.487Z,6.40
2022-09-22T06:22:12.082Z,7.60
2022-09-22T06:24:39.263Z,8.38
2022-09-22T06:27:06.901Z,7.82
2022-09-22T06:29:34.133Z,6.82
2022-09-22T06:32:01.886Z,7.35
2022-09-22T06:34:29.074Z,9.30
2022-09-22T06:36:57.485Z,11.27
2022-09-22T06:39:24.618Z,9.65
2022-09-22T06:41:51.856Z,9.75
2022-09-22T06:44:18.984Z,7.63
2022-09-22T06:46:46.160Z,8.52
2022-09-22T06:49:14.021Z,8.40
2022-09-22T06:51:41.822Z,8.20
2022-09-22T06:54:09.196Z,8.75
2022-09-22T06:56:43.011Z,9.52
2022-09-22T06:59:13.162Z,11.52
2022-09-22T07:01:44.654Z,8.43
2022-09-22T07:06:40.805Z,14.50
2022-09-22T07:09:09.515Z,31.30
2022-09-22T07:11:40.021Z,22.58
2022-09-22T07:14:08.925Z,23.98
2022-09-22T07:16:36.736Z,23.15
2022-09-22T07:19:05.135Z,30.02
2022-09-22T07:21:38.088Z,24.00
2022-09-22T07:24:08.524Z,28.08
2022-09-22T07:26:38.456Z,24.13
2022-09-22T07:29:11.903Z,18.50
2022-09-22T07:31:41.825Z,15.93
2022-09-22T07:34:09.462Z,12.20
2022-09-22T07:36:37.842Z,12.70
2022-09-22T07:39:07.904Z,10.15
2022-09-22T07:41:43.836Z,10.32
2022-09-22T07:44:33.976Z,9.60
2022-09-22T07:47:03.319Z,8.93
2022-09-22T07:49:30.877Z,9.52
2022-09-22T07:51:58.463Z,9.25
2022-09-22T07:54:27.161Z,9.57
2022-09-22T07:56:58.952Z,6.97
2022-09-22T07:59:26.603Z,8.98
2022-09-22T08:01:54.182Z,7.88
2022-09-22T08:04:24.017Z,6.50
2022-09-22T08:06:55.813Z,6.60
2022-09-22T08:09:24.573Z,11.75
2022-09-22T08:11:53.428Z,9.43
2022-09-22T08:14:23.320Z,9.48
2022-09-22T08:16:51.880Z,9.27
2022-09-22T08:19:20.293Z,5.03
2022-09-22T08:21:50.511Z,5.32
2022-09-22T08:24:22.698Z,7.18
2022-09-22T08:26:52.658Z,17.67
2022-09-22T08:29:20.849Z,16.23
2022-09-22T08:31:49.613Z,5.97
2022-09-22T08:34:18.337Z,6.32
2022-09-22T08:36:48.967Z,6.22
2022-09-22T08:39:17.698Z,6.72
2022-09-22T08:42:02.332Z,4.95
2022-09-22T08:44:37.718Z,4.25
2022-09-22T08:47:05.688Z,4.10
2022-09-22T08:54:51.988Z,4.88
2022-09-22T09:00:15.846Z,4.47
2022-09-22T09:03:06.053Z,4.82
2022-09-22T09:06:05.752Z,4.03
2022-09-22T09:09:05.117Z,4.05
2022-09-22T09:12:06.885Z,3.75
2022-09-22T09:14:51.859Z,3.67
2022-09-22T09:17:24.942Z,4.00
2022-09-22T09:19:58.257Z,3.65
2022-09-22T09:25:25.215Z,4.60
2022-09-22T09:27:59.380Z,3.47
2022-09-22T09:30:26.862Z,3.00
2022-09-22T09:35:53.253Z,3.83
2022-09-22T09:38:30.001Z,3.95
2022-09-22T09:41:04.079Z,3.05
2022-09-22T09:43:31.547Z,4.78
2022-09-22T09:46:38.437Z,3.45
2022-09-22T09:49:12.047Z,3.25
2022-09-22T09:51:43.367Z,2.60
2022-09-22T09:54:17.043Z,5.88
2022-09-22T10:02:27.665Z,8.85
2022-09-22T10:04:58.968Z,7.18
2022-09-22T10:10:33.121Z,6.57
2022-09-22T10:16:20.807Z,7.75
2022-09-22T10:18:49.831Z,7.93
2022-09-22T10:23:23.182Z,9.45
2022-09-22T10:25:50.973Z,7.68
2022-09-22T10:28:21.210Z,7.93
2022-09-22T10:31:04.261Z,11.30
2022-09-22T10:33:33.530Z,12.93
2022-09-22T10:38:43.923Z,13.63
2022-09-22T10:41:14.978Z,12.88
2022-09-22T10:44:38.932Z,9.32
2022-09-22T10:47:27.272Z,10.82
2022-09-22T10:52:54.995Z,4.63
2022-09-22T10:55:34.934Z,4.53
2022-09-22T10:58:25.649Z,4.53
2022-09-22T11:01:07.068Z,6.30
2022-09-22T11:12:21.429Z,4.10
2022-09-22T11:15:06.148Z,3.05
2022-09-22T11:31:50.123Z,4.78
2022-09-22T11:40:04.993Z,3.55
2022-09-22T11:43:12.048Z,4.10
2022-09-22T11:49:12.474Z,3.00
2022-09-22T11:52:19.566Z,4.88
2022-09-22T11:57:57.670Z,2.47
2022-09-22T12:00:25.912Z,4.45
2022-09-22T12:03:02.527Z,3.88
2022-09-22T12:08:16.387Z,4.20
2022-09-22T12:10:45.747Z,3.17
2022-09-22T12:13:20.758Z,3.22
2022-09-22T12:16:13.286Z,5.00
2022-09-22T12:19:18.903Z,6.03
2022-09-22T12:22:14.547Z,4.35
2022-09-22T12:24:46.247Z,7.05
2022-09-22T12:27:23.427Z,6.25
2022-09-22T12:30:06.947Z,8.55
2022-09-22T12:35:31.078Z,14.50
2022-09-22T12:38:02.564Z,13.40
2022-09-22T12:40:35.781Z,10.27
2022-09-22T12:43:03.708Z,11.02
2022-09-22T12:51:17.626Z,8.00
2022-09-22T12:56:57.277Z,10.60
2022-09-22T13:02:27.789Z,14.75
2022-09-22T13:07:49.365Z,6.32
2022-09-22T13:18:38.202Z,5.50
2022-09-22T13:29:16.046Z,4.95
2022-09-22T13:31:47.405Z,6.05
2022-09-22T13:34:35.896Z,5.28
2022-09-22T13:37:08.455Z,6.28
2022-09-22T13:39:44.828Z,7.57
2022-09-22T13:45:06.743Z,9.63
2022-09-22T13:47:35.742Z,6.97
2022-09-22T13:50:07.468Z,8.45
2022-09-22T13:52:39.023Z,7.68
2022-09-22T13:57:44.079Z,10.43
2022-09-22T14:00:45.100Z,7.25
2022-09-22T14:03:22.774Z,6.78
2022-09-22T14:05:53.874Z,11.15
2022-09-22T14:08:30.970Z,10.68
2022-09-22T14:11:00.431Z,9.00
2022-09-22T14:16:53.265Z,6.43
2022-09-22T14:19:25.157Z,4.80
2022-09-22T14:21:58.699Z,4.47
2022-09-22T14:24:27.458Z,3.70
2022-09-22T14:27:03.043Z,4.97
2022-09-22T14:32:15.145Z,4.05
2022-09-22T14:34:48.998Z,3.97
2022-09-22T14:40:17.808Z,4.05
2022-09-22T14:42:57.444Z,4.03
2022-09-22T14:45:27.636Z,3.30
2022-09-22T14:48:18.213Z,4.28
2022-09-22T14:50:55.041Z,6.03
2022-09-22T14:53:28.092Z,4.38
2022-09-22T14:56:04.437Z,4.22
2022-09-22T14:58:40.471Z,4.10
2022-09-22T15:04:14.249Z,4.60
2022-09-22T15:06:42.021Z,4.63
2022-09-22T15:09:22.852Z,6.53
2022-09-22T15:11:53.994Z,7.85
2022-09-22T15:14:42.916Z,11.52
2022-09-22T15:17:59.386Z,10.45
2022-09-22T15:23:06.085Z,14.23
2022-09-22T15:25:33.530Z,16.75
2022-09-22T15:28:01.052Z,14.93
2022-09-22T15:30:32.174Z,21.90
2022-09-22T15:33:00.024Z,34.15
2022-09-22T15:35:27.974Z,33.17
2022-09-22T15:37:55.908Z,29.60
2022-09-22T15:40:23.733Z,26.15
2022-09-22T15:43:11.795Z,24.02
2022-09-22T15:45:47.940Z,27.17
2022-09-22T15:48:25.323Z,25.77
2022-09-22T15:50:54.866Z,55.90
2022-09-22T15:53:23.894Z,31.70
2022-09-22T15:55:52.796Z,53.78
2022-09-22T15:58:23.420Z,44.05
2022-09-22T16:00:52.929Z,53.80
2022-09-22T16:03:23.820Z,65.32
2022-09-22T16:05:56.913Z,56.58
2022-09-22T16:08:34.655Z,55.35
2022-09-22T16:11:05.870Z,55.25
2022-09-22T16:13:33.775Z,51.10
2022-09-22T16:16:03.628Z,40.45
2022-09-22T16:18:39.041Z,29.85
2022-09-22T16:24:01.775Z,17.52
2022-09-22T16:26:36.606Z,15.20
2022-09-22T16:29:07.950Z,15.60
2022-09-22T16:31:37.605Z,14.82
2022-09-22T16:34:06.925Z,15.13
2022-09-22T16:36:36.431Z,11.80
2022-09-22T16:39:04.535Z,13.30
2022-09-22T16:41:33.775Z,14.13
2022-09-22T16:44:02.253Z,15.82
2022-09-22T16:46:31.669Z,19.15
2022-09-22T16:49:10.131Z,23.23
2022-09-22T16:51:46.959Z,26.08
2022-09-22T16:54:18.033Z,32.67
2022-09-22T16:56:48.431Z,30.42
2022-09-22T16:59:18.275Z,35.60
2022-09-22T17:01:46.736Z,31.20
2022-09-22T17:04:16.705Z,24.58
2022-09-22T17:06:44.554Z,28.30
2022-09-22T17:09:14.367Z,25.88
2022-09-22T17:11:43.623Z,22.45
2022-09-22T17:14:13.928Z,25.10
2022-09-22T17:16:45.417Z,21.98
2022-09-22T17:19:18.640Z,20.00
2022-09-22T17:21:48.638Z,19.60
2022-09-22T17:24:16.598Z,18.90
2022-09-22T17:26:48.923Z,21.80
2022-09-22T17:29:25.542Z,24.60
2022-09-22T17:31:57.621Z,28.20
2022-09-22T17:34:26.923Z,45.05
2022-09-22T17:36:55.684Z,33.30
2022-09-22T17:39:31.978Z,56.78
2022-09-22T17:44:31.262Z,72.57
2022-09-22T17:47:19.113Z,79.28
2022-09-22T17:50:06.498Z,77.72
2022-09-22T17:52:53.945Z,85.13
2022-09-22T17:55:27.396Z,76.05
2022-09-22T17:57:57.436Z,74.53
2022-09-22T18:00:25.822Z,72.72
2022-09-22T18:02:54.568Z,69.63
2022-09-22T18:05:27.013Z,56.90
2022-09-22T18:07:58.048Z,45.47
2022-09-22T18:10:32.540Z,53.00
2022-09-22T18:13:01.159Z,37.05
2022-09-22T18:15:29.438Z,36.13
2022-09-22T18:17:58.328Z,37.22
2022-09-22T18:20:27.902Z,33.17
2022-09-22T18:22:56.446Z,28.23
2022-09-22T18:25:25.916Z,25.05
2022-09-22T18:27:53.870Z,26.55
2022-09-22T18:30:21.573Z,23.23
2022-09-22T18:32:49.664Z,19.17
2022-09-22T18:35:17.746Z,22.70
2022-09-22T18:37:45.329Z,21.02
2022-09-22T18:40:12.896Z,25.05
2022-09-22T18:42:45.026Z,20.52
2022-09-22T18:45:12.820Z,18.33
2022-09-22T18:47:43.900Z,15.65
2022-09-22T18:50:12.383Z,16.48
2022-09-22T18:52:43.377Z,17.38
2022-09-22T18:55:12.247Z,18.17
2022-09-22T18:57:39.604Z,13.23
2022-09-22T19:00:07.741Z,15.85
2022-09-22T19:02:35.334Z,14.82
2022-09-22T19:05:02.920Z,12.15
2022-09-22T19:07:41.975Z,10.40
2022-09-22T19:10:12.774Z,13.60
2022-09-22T19:12:40.384Z,12.45
2022-09-22T19:15:14.035Z,10.45
2022-09-22T19:17:44.467Z,11.45
2022-09-22T19:20:18.939Z,10.90
2022-09-22T19:22:47.303Z,11.23
2022-09-22T19:25:16.357Z,11.00
2022-09-22T19:27:43.806Z,19.13
2022-09-22T19:30:11.874Z,13.23
2022-09-22T19:32:40.619Z,16.48
2022-09-22T19:35:09.018Z,23.17
2022-09-22T19:37:36.950Z,17.65
2022-09-22T19:40:06.368Z,12.55
2022-09-22T19:42:40.031Z,12.95
2022-09-22T19:45:08.899Z,15.80
2022-09-22T19:47:36.548Z,15.30
2022-09-22T19:50:06.803Z,12.85
2022-09-22T19:52:35.622Z,16.02
2022-09-22T19:55:03.056Z,14.73
2022-09-22T19:57:32.241Z,16.63
2022-09-22T19:59:59.665Z,13.88
2022-09-22T20:02:27.018Z,16.25
2022-09-22T20:04:56.139Z,12.20
2022-09-22T20:07:27.974Z,16.13
2022-09-22T20:09:56.750Z,17.50
2022-09-22T20:12:24.112Z,14.32
2022-09-22T20:14:51.778Z,15.52
2022-09-22T20:17:19.198Z,14.35
2022-09-22T20:19:46.590Z,14.68
2022-09-22T20:24:55.069Z,15.52
2022-09-22T20:27:26.142Z,15.23
2022-09-22T20:29:57.130Z,18.73
2022-09-22T20:32:26.154Z,22.15
2022-09-22T20:34:55.635Z,23.27
2022-09-22T20:37:24.685Z,22.85
2022-09-22T20:39:52.434Z,30.35
2022-09-22T20:42:20.255Z,24.67
2022-09-22T20:44:49.345Z,26.73
2022-09-22T20:47:19.056Z,22.92
2022-09-22T20:49:51.277Z,25.20
2022-09-22T20:52:20.650Z,19.92
2022-09-22T20:54:48.798Z,21.65
2022-09-22T20:57:16.398Z,22.70
2022-09-22T20:59:45.996Z,17.15
2022-09-22T21:02:15.251Z,17.55
2022-09-22T21:04:42.629Z,19.10
2022-09-22T21:07:11.675Z,20.15
2022-09-22T21:09:58.940Z,19.35
2022-09-22T21:12:31.090Z,16.45
2022-09-22T21:14:59.291Z,15.75
2022-09-22T21:17:29.929Z,19.88
2022-09-22T21:19:58.061Z,18.85
2022-09-22T21:22:28.349Z,16.98
2022-09-22T21:24:55.692Z,17.40
2022-09-22T21:27:24.928Z,15.88
2022-09-22T21:29:53.322Z,17.35
2022-09-22T21:32:20.771Z,16.98
2022-09-22T21:34:48.048Z,15.55
2022-09-22T21:37:15.345Z,15.35
2022-09-22T21:39:42.549Z,16.38
2022-09-22T21:42:09.754Z,15.48
2022-09-22T21:44:37.003Z,16.80
2022-09-22T21:47:05.082Z,15.85
2022-09-22T21:49:33.172Z,18.30
2022-09-22T21:52:01.342Z,14.43
2022-09-22T21:54:28.585Z,16.95
2022-09-22T21:56:56.850Z,15.30
2022-09-22T21:59:24.156Z,14.50
2022-09-22T22:01:51.473Z,18.00
2022-09-22T22:04:18.976Z,19.80
2022-09-22T22:06:47.051Z,26.05
2022-09-22T22:09:19.769Z,22.60
2022-09-22T22:11:50.726Z,40.20
2022-09-22T22:14:19.806Z,46.78
2022-09-22T22:16:49.837Z,52.42
2022-09-22T22:19:20.413Z,59.33
2022-09-22T22:21:50.474Z,69.57
2022-09-22T22:27:06.551Z,48.95
2022-09-22T22:29:36.005Z,36.92
2022-09-22T22:32:05.690Z,53.45
2022-09-22T22:34:33.449Z,38.58
2022-09-22T22:37:00.815Z,39.22
2022-09-22T22:39:30.104Z,33.50
2022-09-22T22:41:57.313Z,42.10
2022-09-22T22:44:24.632Z,37.00
2022-09-22T22:46:51.914Z,24.83
2022-09-22T22:49:19.912Z,21.27
2022-09-22T22:51:49.397Z,21.02
2022-09-22T22:54:16.810Z,39.72
2022-09-22T22:56:46.826Z,19.83
2022-09-22T22:59:16.296Z,37.42
2022-09-22T23:01:44.587Z,20.73
2022-09-22T23:04:12.642Z,21.80
2022-09-22T23:06:44.440Z,41.90
2022-09-22T23:09:17.941Z,26.65
2022-09-22T23:11:46.697Z,25.92
2022-09-22T23:14:16.478Z,39.03
2022-09-22T23:16:46.661Z,22.17
2022-09-22T23:19:17.196Z,27.20
2022-09-22T23:21:45.444Z,21.58
2022-09-22T23:24:16.580Z,23.85
2022-09-22T23:26:45.652Z,28.42
2022-09-22T23:29:13.585Z,18.00
2022-09-22T23:31:40.847Z,30.58
2022-09-22T23:34:08.256Z,31.45
2022-09-22T23:36:35.940Z,18.40
2022-09-22T23:39:04.523Z,18.67
2022-09-22T23:41:34.399Z,31.90
2022-09-22T23:44:03.137Z,20.50
2022-09-22T23:46:30.878Z,27.63
2022-09-22T23:49:00.549Z,23.67
2022-09-22T23:51:28.050Z,34.75
2022-09-22T23:53:56.492Z,24.90
2022-09-22T23:56:24.374Z,22.35
2022-09-22T23:58:52.565Z,24.13
